sensor_id;sensor_type;location;lat;lon;timestamp;P1;durP1;ratioP1;P2;durP2;ratioP2
22150;SDS011;11241;47.078;15.462;2022-07-29T00:01:47;10.95;;;5.53;;
22150;SDS011;11241;47.078;15.462;2022-07-29T00:04:05;7.53;;;5.60;;
22150;SDS011;11241;47.078;15.462;2022-07-29T00:06:23;5.70;;;5.10;;
22150;SDS011;11241;47.078;15.462;2022-07-29T00:08:41;6.68;;;5.35;;
22150;SDS011;11241;47.078;15.462;2022-07-29T00:10:59;7.55;;;5.00;;
22150;SDS011;11241;47.078;15.462;2022-07-29T00:13:17;7.15;;;5.60;;
22150;SDS011;11241;47.078;15.462;2022-07-29T00:15:48;9.63;;;5.35;;
22150;SDS011;11241;47.078;15.462;2022-07-29T00:18:07;6.38;;;5.22;;
22150;SDS011;11241;47.078;15.462;2022-07-29T00:20:25;9.50;;;5.35;;
22150;SDS011;11241;47.078;15.462;2022-07-29T00:22:43;10.15;;;5.40;;
22150;SDS011;11241;47.078;15.462;2022-07-29T00:25:01;5.55;;;5.05;;
22150;SDS011;11241;47.078;15.462;2022-07-29T00:27:19;6.65;;;5.22;;
22150;SDS011;11241;47.078;15.462;2022-07-29T00:29:37;9.18;;;5.60;;
22150;SDS011;11241;47.078;15.462;2022-07-29T00:31:55;5.68;;;4.82;;
22150;SDS011;11241;47.078;15.462;2022-07-29T00:34:13;7.20;;;5.40;;
22150;SDS011;11241;47.078;15.462;2022-07-29T00:36:50;7.88;;;5.40;;
22150;SDS011;11241;47.078;15.462;2022-07-29T00:39:07;7.43;;;4.85;;
22150;SDS011;11241;47.078;15.462;2022-07-29T00:41:26;5.85;;;5.07;;
22150;SDS011;11241;47.078;15.462;2022-07-29T00:43:44;8.57;;;5.55;;
22150;SDS011;11241;47.078;15.462;2022-07-29T00:46:02;8.75;;;5.50;;
22150;SDS011;11241;47.078;15.462;2022-07-29T00:48:20;9.40;;;5.82;;
22150;SDS011;11241;47.078;15.462;2022-07-29T00:50:39;8.70;;;5.35;;
22150;SDS011;11241;47.078;15.462;2022-07-29T00:52:58;9.98;;;5.78;;
22150;SDS011;11241;47.078;15.462;2022-07-29T00:55:16;6.10;;;5.50;;
22150;SDS011;11241;47.078;15.462;2022-07-29T00:57:35;8.55;;;5.50;;
22150;SDS011;11241;47.078;15.462;2022-07-29T00:59:54;8.73;;;5.18;;
22150;SDS011;11241;47.078;15.462;2022-07-29T01:02:12;6.38;;;5.18;;
22150;SDS011;11241;47.078;15.462;2022-07-29T01:04:30;6.97;;;5.47;;
22150;SDS011;11241;47.078;15.462;2022-07-29T01:06:48;7.47;;;5.40;;
22150;SDS011;11241;47.078;15.462;2022-07-29T01:09:06;12.07;;;5.53;;
22150;SDS011;11241;47.078;15.462;2022-07-29T01:11:25;7.25;;;5.40;;
22150;SDS011;11241;47.078;15.462;2022-07-29T01:13:43;7.97;;;5.70;;
22150;SDS011;11241;47.078;15.462;2022-07-29T01:16:09;8.02;;;5.47;;
22150;SDS011;11241;47.078;15.462;2022-07-29T01:18:30;9.48;;;5.80;;
22150;SDS011;11241;47.078;15.462;2022-07-29T01:30:22;7.65;;;5.60;;
22150;SDS011;11241;47.078;15.462;2022-07-29T01:32:43;8.27;;;5.38;;
22150;SDS011;11241;47.078;15.462;2022-07-29T01:37:32;9.13;;;5.75;;
22150;SDS011;11241;47.078;15.462;2022-07-29T01:39:52;6.60;;;5.57;;
22150;SDS011;11241;47.078;15.462;2022-07-29T01:44:31;6.50;;;5.20;;
22150;SDS011;11241;47.078;15.462;2022-07-29T01:46:52;10.45;;;6.00;;
22150;SDS011;11241;47.078;15.462;2022-07-29T01:49:13;7.60;;;5.90;;
22150;SDS011;11241;47.078;15.462;2022-07-29T01:53:57;12.38;;;5.65;;
22150;SDS011;11241;47.078;15.462;2022-07-29T01:56:16;9.68;;;5.55;;
22150;SDS011;11241;47.078;15.462;2022-07-29T01:58:36;9.50;;;5.25;;
22150;SDS011;11241;47.078;15.462;2022-07-29T02:00:57;6.70;;;5.13;;
22150;SDS011;11241;47.078;15.462;2022-07-29T02:03:15;7.10;;;5.28;;
22150;SDS011;11241;47.078;15.462;2022-07-29T02:05:35;7.85;;;5.30;;
22150;SDS011;11241;47.078;15.462;2022-07-29T02:07:53;17.67;;;5.40;;
22150;SDS011;11241;47.078;15.462;2022-07-29T02:10:13;7.15;;;5.35;;
22150;SDS011;11241;47.078;15.462;2022-07-29T02:12:33;10.82;;;5.75;;
22150;SDS011;11241;47.078;15.462;2022-07-29T02:14:53;6.63;;;5.50;;
22150;SDS011;11241;47.078;15.462;2022-07-29T02:17:12;9.50;;;5.75;;
22150;SDS011;11241;47.078;15.462;2022-07-29T02:19:30;8.75;;;5.28;;
22150;SDS011;11241;47.078;15.462;2022-07-29T02:21:53;7.00;;;5.50;;
22150;SDS011;11241;47.078;15.462;2022-07-29T02:24:12;7.20;;;5.30;;
22150;SDS011;11241;47.078;15.462;2022-07-29T02:26:32;7.82;;;5.40;;
22150;SDS011;11241;47.078;15.462;2022-07-29T02:28:51;9.93;;;5.65;;
22150;SDS011;11241;47.078;15.462;2022-07-29T02:31:09;7.80;;;5.68;;
22150;SDS011;11241;47.078;15.462;2022-07-29T02:33:29;13.23;;;5.97;;
22150;SDS011;11241;47.078;15.462;2022-07-29T02:35:48;6.18;;;5.28;;
22150;SDS011;11241;47.078;15.462;2022-07-29T02:38:07;9.05;;;5.88;;
22150;SDS011;11241;47.078;15.462;2022-07-29T02:40:44;8.55;;;5.82;;
22150;SDS011;11241;47.078;15.462;2022-07-29T02:43:03;8.10;;;5.53;;
22150;SDS011;11241;47.078;15.462;2022-07-29T02:45:22;9.55;;;5.47;;
22150;SDS011;11241;47.078;15.462;2022-07-29T02:47:41;9.52;;;5.97;;
22150;SDS011;11241;47.078;15.462;2022-07-29T02:50:00;8.98;;;5.70;;
22150;SDS011;11241;47.078;15.462;2022-07-29T02:52:24;9.27;;;5.88;;
22150;SDS011;11241;47.078;15.462;2022-07-29T02:54:56;6.65;;;5.38;;
22150;SDS011;11241;47.078;15.462;2022-07-29T02:57:19;7.57;;;5.47;;
22150;SDS011;11241;47.078;15.462;2022-07-29T02:59:38;7.05;;;5.55;;
22150;SDS011;11241;47.078;15.462;2022-07-29T03:01:59;7.15;;;5.63;;
22150;SDS011;11241;47.078;15.462;2022-07-29T03:04:17;7.43;;;6.00;;
22150;SDS011;11241;47.078;15.462;2022-07-29T03:06:37;11.68;;;5.88;;
22150;SDS011;11241;47.078;15.462;2022-07-29T03:08:58;8.70;;;5.55;;
22150;SDS011;11241;47.078;15.462;2022-07-29T03:11:16;10.07;;;6.10;;
22150;SDS011;11241;47.078;15.462;2022-07-29T03:13:55;9.32;;;5.50;;
22150;SDS011;11241;47.078;15.462;2022-07-29T03:16:13;6.50;;;5.80;;
22150;SDS011;11241;47.078;15.462;2022-07-29T03:18:31;8.60;;;6.40;;
22150;SDS011;11241;47.078;15.462;2022-07-29T03:20:49;7.72;;;5.90;;
22150;SDS011;11241;47.078;15.462;2022-07-29T03:23:07;10.05;;;5.82;;
22150;SDS011;11241;47.078;15.462;2022-07-29T03:25:25;12.20;;;6.25;;
22150;SDS011;11241;47.078;15.462;2022-07-29T03:27:44;10.27;;;5.53;;
22150;SDS011;11241;47.078;15.462;2022-07-29T03:30:03;8.23;;;6.07;;
22150;SDS011;11241;47.078;15.462;2022-07-29T03:32:24;6.57;;;5.95;;
22150;SDS011;11241;47.078;15.462;2022-07-29T03:34:43;8.30;;;5.65;;
22150;SDS011;11241;47.078;15.462;2022-07-29T03:37:01;6.88;;;5.85;;
22150;SDS011;11241;47.078;15.462;2022-07-29T03:39:20;8.23;;;5.90;;
22150;SDS011;11241;47.078;15.462;2022-07-29T03:41:39;9.10;;;6.10;;
22150;SDS011;11241;47.078;15.462;2022-07-29T03:43:59;9.57;;;6.07;;
22150;SDS011;11241;47.078;15.462;2022-07-29T03:46:17;6.78;;;6.03;;
22150;SDS011;11241;47.078;15.462;2022-07-29T03:48:37;10.15;;;6.78;;
22150;SDS011;11241;47.078;15.462;2022-07-29T03:50:57;8.88;;;6.50;;
22150;SDS011;11241;47.078;15.462;2022-07-29T03:53:15;7.22;;;6.05;;
22150;SDS011;11241;47.078;15.462;2022-07-29T03:55:33;9.55;;;6.63;;
22150;SDS011;11241;47.078;15.462;2022-07-29T03:57:53;9.40;;;6.18;;
22150;SDS011;11241;47.078;15.462;2022-07-29T04:00:13;7.32;;;6.50;;
22150;SDS011;11241;47.078;15.462;2022-07-29T04:02:32;11.90;;;6.47;;
22150;SDS011;11241;47.078;15.462;2022-07-29T04:04:50;8.10;;;6.28;;
22150;SDS011;11241;47.078;15.462;2022-07-29T04:07:11;10.10;;;6.45;;
22150;SDS011;11241;47.078;15.462;2022-07-29T04:09:29;8.40;;;6.57;;
22150;SDS011;11241;47.078;15.462;2022-07-29T04:11:47;6.97;;;5.90;;
22150;SDS011;11241;47.078;15.462;2022-07-29T04:14:19;9.10;;;6.38;;
22150;SDS011;11241;47.078;15.462;2022-07-29T04:16:37;16.60;;;6.60;;
22150;SDS011;11241;47.078;15.462;2022-07-29T04:18:55;11.15;;;5.90;;
22150;SDS011;11241;47.078;15.462;2022-07-29T04:21:13;12.43;;;6.43;;
22150;SDS011;11241;47.078;15.462;2022-07-29T04:23:31;9.32;;;6.85;;
22150;SDS011;11241;47.078;15.462;2022-07-29T04:25:50;8.75;;;6.22;;
22150;SDS011;11241;47.078;15.462;2022-07-29T04:28:08;8.77;;;6.47;;
22150;SDS011;11241;47.078;15.462;2022-07-29T04:30:27;11.48;;;6.13;;
22150;SDS011;11241;47.078;15.462;2022-07-29T04:32:45;9.48;;;6.40;;
22150;SDS011;11241;47.078;15.462;2022-07-29T04:35:03;9.50;;;7.00;;
22150;SDS011;11241;47.078;15.462;2022-07-29T04:37:21;12.10;;;6.53;;
22150;SDS011;11241;47.078;15.462;2022-07-29T04:39:39;10.27;;;6.82;;
22150;SDS011;11241;47.078;15.462;2022-07-29T04:41:57;10.25;;;6.38;;
22150;SDS011;11241;47.078;15.462;2022-07-29T04:44:17;9.70;;;7.10;;
22150;SDS011;11241;47.078;15.462;2022-07-29T04:46:35;11.68;;;6.93;;
22150;SDS011;11241;47.078;15.462;2022-07-29T04:48:53;10.00;;;6.22;;
22150;SDS011;11241;47.078;15.462;2022-07-29T04:51:12;9.88;;;6.47;;
22150;SDS011;11241;47.078;15.462;2022-07-29T04:53:30;9.38;;;6.45;;
22150;SDS011;11241;47.078;15.462;2022-07-29T04:55:48;8.25;;;6.68;;
22150;SDS011;11241;47.078;15.462;2022-07-29T04:58:06;13.45;;;6.95;;
22150;SDS011;11241;47.078;15.462;2022-07-29T05:00:24;13.13;;;7.00;;
22150;SDS011;11241;47.078;15.462;2022-07-29T05:02:49;16.00;;;8.15;;
22150;SDS011;11241;47.078;15.462;2022-07-29T05:05:07;11.10;;;7.00;;
22150;SDS011;11241;47.078;15.462;2022-07-29T05:07:25;8.73;;;6.60;;
22150;SDS011;11241;47.078;15.462;2022-07-29T05:09:43;10.00;;;7.07;;
22150;SDS011;11241;47.078;15.462;2022-07-29T05:12:01;10.25;;;6.90;;
22150;SDS011;11241;47.078;15.462;2022-07-29T05:14:19;8.27;;;7.15;;
22150;SDS011;11241;47.078;15.462;2022-07-29T05:16:37;12.27;;;7.10;;
22150;SDS011;11241;47.078;15.462;2022-07-29T05:18:56;9.38;;;6.80;;
22150;SDS011;11241;47.078;15.462;2022-07-29T05:21:14;10.38;;;7.03;;
22150;SDS011;11241;47.078;15.462;2022-07-29T05:23:32;11.00;;;6.95;;
22150;SDS011;11241;47.078;15.462;2022-07-29T05:25:50;7.38;;;6.40;;
22150;SDS011;11241;47.078;15.462;2022-07-29T05:28:08;10.35;;;7.20;;
22150;SDS011;11241;47.078;15.462;2022-07-29T05:30:26;9.02;;;7.28;;
22150;SDS011;11241;47.078;15.462;2022-07-29T05:32:44;8.65;;;7.25;;
22150;SDS011;11241;47.078;15.462;2022-07-29T05:35:02;14.65;;;7.43;;
22150;SDS011;11241;47.078;15.462;2022-07-29T05:37:20;11.13;;;7.53;;
22150;SDS011;11241;47.078;15.462;2022-07-29T05:39:39;11.38;;;7.85;;
22150;SDS011;11241;47.078;15.462;2022-07-29T05:42:08;12.95;;;7.82;;
22150;SDS011;11241;47.078;15.462;2022-07-29T05:44:27;11.48;;;7.78;;
22150;SDS011;11241;47.078;15.462;2022-07-29T05:46:45;9.75;;;7.47;;
22150;SDS011;11241;47.078;15.462;2022-07-29T05:49:05;9.82;;;7.65;;
22150;SDS011;11241;47.078;15.462;2022-07-29T05:51:42;8.80;;;7.68;;
22150;SDS011;11241;47.078;15.462;2022-07-29T05:54:01;9.55;;;7.32;;
22150;SDS011;11241;47.078;15.462;2022-07-29T05:56:19;10.30;;;7.57;;
22150;SDS011;11241;47.078;15.462;2022-07-29T05:58:39;14.60;;;7.53;;
22150;SDS011;11241;47.078;15.462;2022-07-29T06:00:59;10.65;;;7.28;;
22150;SDS011;11241;47.078;15.462;2022-07-29T06:03:18;12.45;;;7.82;;
22150;SDS011;11241;47.078;15.462;2022-07-29T06:05:36;11.07;;;7.50;;
22150;SDS011;11241;47.078;15.462;2022-07-29T06:07:54;22.35;;;8.05;;
22150;SDS011;11241;47.078;15.462;2022-07-29T06:10:13;14.27;;;7.25;;
22150;SDS011;11241;47.078;15.462;2022-07-29T06:12:31;14.02;;;7.07;;
22150;SDS011;11241;47.078;15.462;2022-07-29T06:14:49;12.63;;;7.50;;
22150;SDS011;11241;47.078;15.462;2022-07-29T06:17:10;15.85;;;7.80;;
22150;SDS011;11241;47.078;15.462;2022-07-29T06:19:28;14.95;;;7.82;;
22150;SDS011;11241;47.078;15.462;2022-07-29T06:21:46;11.02;;;6.88;;
22150;SDS011;11241;47.078;15.462;2022-07-29T06:24:05;8.85;;;7.07;;
22150;SDS011;11241;47.078;15.462;2022-07-29T06:26:25;9.30;;;7.38;;
22150;SDS011;11241;47.078;15.462;2022-07-29T06:28:47;11.45;;;7.35;;
22150;SDS011;11241;47.078;15.462;2022-07-29T06:31:06;10.85;;;7.50;;
22150;SDS011;11241;47.078;15.462;2022-07-29T06:33:26;16.50;;;7.20;;
22150;SDS011;11241;47.078;15.462;2022-07-29T06:35:44;12.95;;;7.03;;
22150;SDS011;11241;47.078;15.462;2022-07-29T06:38:10;9.40;;;7.07;;
22150;SDS011;11241;47.078;15.462;2022-07-29T06:40:50;14.32;;;6.95;;
22150;SDS011;11241;47.078;15.462;2022-07-29T06:43:17;12.02;;;6.85;;
22150;SDS011;11241;47.078;15.462;2022-07-29T06:45:35;10.02;;;6.95;;
22150;SDS011;11241;47.078;15.462;2022-07-29T06:47:53;9.43;;;6.38;;
22150;SDS011;11241;47.078;15.462;2022-07-29T06:50:11;9.43;;;6.53;;
22150;SDS011;11241;47.078;15.462;2022-07-29T06:52:30;9.55;;;6.40;;
22150;SDS011;11241;47.078;15.462;2022-07-29T06:54:48;8.75;;;6.10;;
22150;SDS011;11241;47.078;15.462;2022-07-29T06:57:06;11.63;;;6.40;;
22150;SDS011;11241;47.078;15.462;2022-07-29T06:59:24;7.63;;;6.25;;
22150;SDS011;11241;47.078;15.462;2022-07-29T07:01:51;10.13;;;6.50;;
22150;SDS011;11241;47.078;15.462;2022-07-29T07:04:09;13.95;;;6.70;;
22150;SDS011;11241;47.078;15.462;2022-07-29T07:06:27;8.18;;;6.45;;
22150;SDS011;11241;47.078;15.462;2022-07-29T07:08:45;13.63;;;6.60;;
22150;SDS011;11241;47.078;15.462;2022-07-29T07:11:03;10.20;;;6.45;;
22150;SDS011;11241;47.078;15.462;2022-07-29T07:13:23;9.05;;;6.70;;
22150;SDS011;11241;47.078;15.462;2022-07-29T07:15:41;9.27;;;6.10;;
22150;SDS011;11241;47.078;15.462;2022-07-29T07:17:59;10.90;;;6.53;;
22150;SDS011;11241;47.078;15.462;2022-07-29T07:20:17;12.70;;;6.75;;
22150;SDS011;11241;47.078;15.462;2022-07-29T07:22:36;11.05;;;6.95;;
22150;SDS011;11241;47.078;15.462;2022-07-29T07:24:54;9.35;;;6.35;;
22150;SDS011;11241;47.078;15.462;2022-07-29T07:27:13;9.90;;;6.13;;
22150;SDS011;11241;47.078;15.462;2022-07-29T07:29:31;12.07;;;5.63;;
22150;SDS011;11241;47.078;15.462;2022-07-29T07:31:49;11.25;;;6.15;;
22150;SDS011;11241;47.078;15.462;2022-07-29T07:34:12;7.47;;;6.03;;
22150;SDS011;11241;47.078;15.462;2022-07-29T07:36:30;11.07;;;6.38;;
22150;SDS011;11241;47.078;15.462;2022-07-29T07:38:48;8.48;;;6.13;;
22150;SDS011;11241;47.078;15.462;2022-07-29T07:41:07;11.40;;;5.57;;
22150;SDS011;11241;47.078;15.462;2022-07-29T07:43:25;8.13;;;5.97;;
22150;SDS011;11241;47.078;15.462;2022-07-29T07:45:43;7.30;;;5.97;;
22150;SDS011;11241;47.078;15.462;2022-07-29T07:48:01;8.88;;;5.85;;
22150;SDS011;11241;47.078;15.462;2022-07-29T07:50:19;7.60;;;5.90;;
22150;SDS011;11241;47.078;15.462;2022-07-29T07:52:47;7.88;;;5.60;;
22150;SDS011;11241;47.078;15.462;2022-07-29T07:55:06;12.00;;;5.75;;
22150;SDS011;11241;47.078;15.462;2022-07-29T07:57:24;10.00;;;5.85;;
22150;SDS011;11241;47.078;15.462;2022-07-29T07:59:42;7.70;;;5.85;;
22150;SDS011;11241;47.078;15.462;2022-07-29T08:02:00;7.60;;;5.57;;
22150;SDS011;11241;47.078;15.462;2022-07-29T08:04:18;7.20;;;5.75;;
22150;SDS011;11241;47.078;15.462;2022-07-29T08:06:43;7.57;;;5.85;;
22150;SDS011;11241;47.078;15.462;2022-07-29T08:09:02;9.18;;;5.50;;
22150;SDS011;11241;47.078;15.462;2022-07-29T08:11:40;9.23;;;5.30;;
22150;SDS011;11241;47.078;15.462;2022-07-29T08:14:08;9.38;;;4.80;;
22150;SDS011;11241;47.078;15.462;2022-07-29T08:16:29;9.02;;;5.03;;
22150;SDS011;11241;47.078;15.462;2022-07-29T08:18:47;8.07;;;4.40;;
22150;SDS011;11241;47.078;15.462;2022-07-29T08:21:05;7.72;;;4.93;;
22150;SDS011;11241;47.078;15.462;2022-07-29T08:23:23;8.10;;;4.88;;
22150;SDS011;11241;47.078;15.462;2022-07-29T08:26:01;7.50;;;5.13;;
22150;SDS011;11241;47.078;15.462;2022-07-29T08:28:19;10.10;;;5.75;;
22150;SDS011;11241;47.078;15.462;2022-07-29T08:30:41;7.53;;;5.15;;
22150;SDS011;11241;47.078;15.462;2022-07-29T08:32:59;12.73;;;5.43;;
22150;SDS011;11241;47.078;15.462;2022-07-29T08:35:17;9.10;;;5.65;;
22150;SDS011;11241;47.078;15.462;2022-07-29T08:37:35;6.25;;;4.78;;
22150;SDS011;11241;47.078;15.462;2022-07-29T08:39:53;6.15;;;4.80;;
22150;SDS011;11241;47.078;15.462;2022-07-29T08:42:11;10.35;;;5.30;;
22150;SDS011;11241;47.078;15.462;2022-07-29T08:44:30;11.88;;;5.90;;
22150;SDS011;11241;47.078;15.462;2022-07-29T08:46:49;9.93;;;4.47;;
22150;SDS011;11241;47.078;15.462;2022-07-29T08:49:07;10.07;;;5.20;;
22150;SDS011;11241;47.078;15.462;2022-07-29T08:51:25;8.20;;;5.05;;
22150;SDS011;11241;47.078;15.462;2022-07-29T08:53:47;9.88;;;5.10;;
22150;SDS011;11241;47.078;15.462;2022-07-29T08:56:06;6.50;;;4.97;;
22150;SDS011;11241;47.078;15.462;2022-07-29T08:58:25;8.25;;;4.93;;
22150;SDS011;11241;47.078;15.462;2022-07-29T09:00:45;8.50;;;5.13;;
22150;SDS011;11241;47.078;15.462;2022-07-29T09:03:05;7.25;;;5.10;;
22150;SDS011;11241;47.078;15.462;2022-07-29T09:05:23;6.13;;;4.57;;
22150;SDS011;11241;47.078;15.462;2022-07-29T09:07:41;8.77;;;4.50;;
22150;SDS011;11241;47.078;15.462;2022-07-29T09:10:00;4.88;;;4.13;;
22150;SDS011;11241;47.078;15.462;2022-07-29T09:12:19;7.28;;;4.53;;
22150;SDS011;11241;47.078;15.462;2022-07-29T09:14:46;9.18;;;4.60;;
22150;SDS011;11241;47.078;15.462;2022-07-29T09:17:04;9.32;;;4.72;;
22150;SDS011;11241;47.078;15.462;2022-07-29T09:19:24;7.00;;;4.53;;
22150;SDS011;11241;47.078;15.462;2022-07-29T09:21:42;8.52;;;4.70;;
22150;SDS011;11241;47.078;15.462;2022-07-29T09:24:18;7.38;;;4.55;;
22150;SDS011;11241;47.078;15.462;2022-07-29T09:26:38;11.18;;;5.10;;
22150;SDS011;11241;47.078;15.462;2022-07-29T09:28:57;6.25;;;4.65;;
22150;SDS011;11241;47.078;15.462;2022-07-29T09:31:15;7.07;;;4.68;;
22150;SDS011;11241;47.078;15.462;2022-07-29T09:33:34;6.93;;;4.68;;
22150;SDS011;11241;47.078;15.462;2022-07-29T09:36:26;9.02;;;4.90;;
22150;SDS011;11241;47.078;15.462;2022-07-29T09:38:37;6.35;;;4.72;;
22150;SDS011;11241;47.078;15.462;2022-07-29T09:40:56;10.77;;;5.05;;
22150;SDS011;11241;47.078;15.462;2022-07-29T09:43:21;6.70;;;5.18;;
22150;SDS011;11241;47.078;15.462;2022-07-29T09:45:39;5.93;;;4.15;;
22150;SDS011;11241;47.078;15.462;2022-07-29T09:47:58;7.13;;;4.85;;
22150;SDS011;11241;47.078;15.462;2022-07-29T09:50:20;9.55;;;4.95;;
22150;SDS011;11241;47.078;15.462;2022-07-29T09:52:47;8.65;;;4.65;;
22150;SDS011;11241;47.078;15.462;2022-07-29T09:55:06;7.75;;;5.13;;
22150;SDS011;11241;47.078;15.462;2022-07-29T09:57:34;5.53;;;4.72;;
22150;SDS011;11241;47.078;15.462;2022-07-29T09:59:59;10.63;;;4.60;;
22150;SDS011;11241;47.078;15.462;2022-07-29T10:02:27;12.00;;;4.80;;
22150;SDS011;11241;47.078;15.462;2022-07-29T10:04:46;7.95;;;5.05;;
22150;SDS011;11241;47.078;15.462;2022-07-29T10:07:05;11.02;;;4.97;;
22150;SDS011;11241;47.078;15.462;2022-07-29T10:09:25;7.95;;;4.80;;
22150;SDS011;11241;47.078;15.462;2022-07-29T10:11:44;6.35;;;4.63;;
22150;SDS011;11241;47.078;15.462;2022-07-29T10:14:19;8.63;;;4.65;;
22150;SDS011;11241;47.078;15.462;2022-07-29T10:16:37;11.77;;;4.75;;
22150;SDS011;11241;47.078;15.462;2022-07-29T10:18:55;7.60;;;4.53;;
22150;SDS011;11241;47.078;15.462;2022-07-29T10:21:13;8.80;;;5.53;;
22150;SDS011;11241;47.078;15.462;2022-07-29T10:23:52;8.18;;;4.57;;
22150;SDS011;11241;47.078;15.462;2022-07-29T10:26:15;5.88;;;4.40;;
22150;SDS011;11241;47.078;15.462;2022-07-29T10:28:34;9.98;;;4.55;;
22150;SDS011;11241;47.078;15.462;2022-07-29T10:30:52;5.68;;;4.50;;
22150;SDS011;11241;47.078;15.462;2022-07-29T10:33:39;7.93;;;4.50;;
22150;SDS011;11241;47.078;15.462;2022-07-29T10:43:26;7.00;;;5.05;;
22150;SDS011;11241;47.078;15.462;2022-07-29T10:45:48;7.60;;;4.47;;
22150;SDS011;11241;47.078;15.462;2022-07-29T10:48:08;6.15;;;4.40;;
22150;SDS011;11241;47.078;15.462;2022-07-29T10:50:26;8.73;;;4.53;;
22150;SDS011;11241;47.078;15.462;2022-07-29T10:52:55;8.15;;;4.57;;
22150;SDS011;11241;47.078;15.462;2022-07-29T10:55:30;5.63;;;4.32;;
22150;SDS011;11241;47.078;15.462;2022-07-29T10:58:10;9.93;;;6.57;;
22150;SDS011;11241;47.078;15.462;2022-07-29T11:00:30;5.38;;;4.53;;
22150;SDS011;11241;47.078;15.462;2022-07-29T11:02:48;7.18;;;4.30;;
22150;SDS011;11241;47.078;15.462;2022-07-29T11:07:32;5.43;;;4.60;;
22150;SDS011;11241;47.078;15.462;2022-07-29T11:14:56;5.72;;;4.03;;
22150;SDS011;11241;47.078;15.462;2022-07-29T11:17:16;6.85;;;4.07;;
22150;SDS011;11241;47.078;15.462;2022-07-29T11:19:36;7.22;;;4.47;;
22150;SDS011;11241;47.078;15.462;2022-07-29T11:22:02;11.63;;;4.20;;
22150;SDS011;11241;47.078;15.462;2022-07-29T11:24:22;5.25;;;4.30;;
22150;SDS011;11241;47.078;15.462;2022-07-29T11:27:05;5.22;;;4.10;;
22150;SDS011;11241;47.078;15.462;2022-07-29T11:29:24;7.45;;;4.53;;
22150;SDS011;11241;47.078;15.462;2022-07-29T11:32:13;8.13;;;4.55;;
22150;SDS011;11241;47.078;15.462;2022-07-29T11:34:39;7.63;;;4.00;;
22150;SDS011;11241;47.078;15.462;2022-07-29T11:39:29;8.85;;;4.07;;
22150;SDS011;11241;47.078;15.462;2022-07-29T11:41:53;7.03;;;4.43;;
22150;SDS011;11241;47.078;15.462;2022-07-29T11:47:08;9.68;;;4.70;;
22150;SDS011;11241;47.078;15.462;2022-07-29T11:49:27;10.80;;;4.95;;
22150;SDS011;11241;47.078;15.462;2022-07-29T11:51:52;10.95;;;4.13;;
22150;SDS011;11241;47.078;15.462;2022-07-29T11:54:11;12.82;;;5.05;;
22150;SDS011;11241;47.078;15.462;2022-07-29T11:56:31;9.82;;;4.30;;
22150;SDS011;11241;47.078;15.462;2022-07-29T11:58:50;7.70;;;4.70;;
22150;SDS011;11241;47.078;15.462;2022-07-29T12:01:08;10.13;;;4.55;;
22150;SDS011;11241;47.078;15.462;2022-07-29T12:03:31;7.97;;;4.30;;
22150;SDS011;11241;47.078;15.462;2022-07-29T12:05:52;10.98;;;5.05;;
22150;SDS011;11241;47.078;15.462;2022-07-29T12:08:17;7.57;;;4.70;;
22150;SDS011;11241;47.078;15.462;2022-07-29T12:10:39;6.75;;;4.50;;
22150;SDS011;11241;47.078;15.462;2022-07-29T12:12:59;7.85;;;4.00;;
22150;SDS011;11241;47.078;15.462;2022-07-29T12:15:17;10.30;;;5.10;;
22150;SDS011;11241;47.078;15.462;2022-07-29T12:17:38;9.57;;;4.88;;
22150;SDS011;11241;47.078;15.462;2022-07-29T12:19:58;10.38;;;4.95;;
22150;SDS011;11241;47.078;15.462;2022-07-29T12:22:32;7.97;;;4.50;;
22150;SDS011;11241;47.078;15.462;2022-07-29T12:24:50;9.00;;;4.70;;
22150;SDS011;11241;47.078;15.462;2022-07-29T12:27:16;7.60;;;4.75;;
22150;SDS011;11241;47.078;15.462;2022-07-29T12:29:45;17.23;;;4.70;;
22150;SDS011;11241;47.078;15.462;2022-07-29T12:32:14;6.03;;;4.65;;
22150;SDS011;11241;47.078;15.462;2022-07-29T12:34:35;11.07;;;4.68;;
22150;SDS011;11241;47.078;15.462;2022-07-29T12:36:53;16.38;;;4.68;;
22150;SDS011;11241;47.078;15.462;2022-07-29T12:39:12;8.27;;;4.85;;
22150;SDS011;11241;47.078;15.462;2022-07-29T12:41:30;8.65;;;5.22;;
22150;SDS011;11241;47.078;15.462;2022-07-29T12:43:52;7.95;;;4.63;;
22150;SDS011;11241;47.078;15.462;2022-07-29T12:46:13;6.78;;;4.80;;
22150;SDS011;11241;47.078;15.462;2022-07-29T12:48:35;8.52;;;4.35;;
22150;SDS011;11241;47.078;15.462;2022-07-29T12:50:55;9.88;;;4.88;;
22150;SDS011;11241;47.078;15.462;2022-07-29T12:53:13;7.05;;;4.68;;
22150;SDS011;11241;47.078;15.462;2022-07-29T12:55:40;7.25;;;4.40;;
22150;SDS011;11241;47.078;15.462;2022-07-29T12:57:59;11.95;;;5.03;;
22150;SDS011;11241;47.078;15.462;2022-07-29T13:00:21;6.72;;;4.13;;
22150;SDS011;11241;47.078;15.462;2022-07-29T13:02:40;6.88;;;4.90;;
22150;SDS011;11241;47.078;15.462;2022-07-29T13:04:59;6.97;;;4.65;;
22150;SDS011;11241;47.078;15.462;2022-07-29T13:07:23;6.80;;;4.22;;
22150;SDS011;11241;47.078;15.462;2022-07-29T13:10:15;10.68;;;5.10;;
22150;SDS011;11241;47.078;15.462;2022-07-29T13:12:33;9.05;;;5.32;;
22150;SDS011;11241;47.078;15.462;2022-07-29T13:14:52;7.35;;;4.68;;
22150;SDS011;11241;47.078;15.462;2022-07-29T13:19:33;8.30;;;4.55;;
22150;SDS011;11241;47.078;15.462;2022-07-29T13:21:52;12.65;;;5.63;;
22150;SDS011;11241;47.078;15.462;2022-07-29T13:24:10;10.20;;;5.00;;
22150;SDS011;11241;47.078;15.462;2022-07-29T13:26:39;8.48;;;5.03;;
22150;SDS011;11241;47.078;15.462;2022-07-29T13:28:57;8.10;;;4.93;;
22150;SDS011;11241;47.078;15.462;2022-07-29T13:31:15;7.47;;;4.53;;
22150;SDS011;11241;47.078;15.462;2022-07-29T13:33:33;9.07;;;4.93;;
22150;SDS011;11241;47.078;15.462;2022-07-29T13:35:51;8.13;;;4.47;;
22150;SDS011;11241;47.078;15.462;2022-07-29T13:38:09;7.32;;;5.20;;
22150;SDS011;11241;47.078;15.462;2022-07-29T13:40:27;9.25;;;4.28;;
22150;SDS011;11241;47.078;15.462;2022-07-29T13:42:45;6.47;;;4.93;;
22150;SDS011;11241;47.078;15.462;2022-07-29T13:45:04;11.40;;;4.68;;
22150;SDS011;11241;47.078;15.462;2022-07-29T13:47:23;10.27;;;4.88;;
22150;SDS011;11241;47.078;15.462;2022-07-29T13:49:48;8.25;;;4.95;;
22150;SDS011;11241;47.078;15.462;2022-07-29T13:52:07;7.32;;;4.18;;
22150;SDS011;11241;47.078;15.462;2022-07-29T13:54:24;5.60;;;4.68;;
22150;SDS011;11241;47.078;15.462;2022-07-29T13:56:43;10.88;;;5.20;;
22150;SDS011;11241;47.078;15.462;2022-07-29T13:59:02;7.20;;;5.00;;
22150;SDS011;11241;47.078;15.462;2022-07-29T14:01:20;5.05;;;4.55;;
22150;SDS011;11241;47.078;15.462;2022-07-29T14:03:38;8.57;;;4.93;;
22150;SDS011;11241;47.078;15.462;2022-07-29T14:06:01;10.38;;;5.10;;
22150;SDS011;11241;47.078;15.462;2022-07-29T14:08:19;10.48;;;5.03;;
22150;SDS011;11241;47.078;15.462;2022-07-29T14:10:40;5.57;;;4.53;;
22150;SDS011;11241;47.078;15.462;2022-07-29T14:12:58;8.57;;;4.75;;
22150;SDS011;11241;47.078;15.462;2022-07-29T14:15:16;8.60;;;4.65;;
22150;SDS011;11241;47.078;15.462;2022-07-29T14:17:34;9.77;;;5.03;;
22150;SDS011;11241;47.078;15.462;2022-07-29T14:19:53;7.57;;;4.78;;
22150;SDS011;11241;47.078;15.462;2022-07-29T14:22:11;12.90;;;5.00;;
22150;SDS011;11241;47.078;15.462;2022-07-29T14:24:29;6.25;;;4.53;;
22150;SDS011;11241;47.078;15.462;2022-07-29T14:26:52;8.30;;;4.90;;
22150;SDS011;11241;47.078;15.462;2022-07-29T14:29:10;9.98;;;4.90;;
22150;SDS011;11241;47.078;15.462;2022-07-29T14:31:28;9.40;;;5.10;;